首页
METAR-TAF:

METAR-TAF

机场 :

庫斯科, 秘鲁

纬度: 13-33S, 经度: 071-59W, 海拔: 3248米

当前天气观测

该预报发布于42分钟前的18:30 UTC
风速9节,风向西,在西南北转西北之间变化
温度 19°C
湿度 24%
气压 1033 hPa
能见度10公里或以上

METAR: SPZO 241830Z 27009KT 220V340 9999 NSC 19/M02 Q1033 NOSIG RMK BIRD HAZARD RWY 10/28

时间: 14:12 (19:12 UTC)

预报

该预报发布于2小时和12分钟前的17:00 UTC
预报有效从24日的 18点(UTC)到 25日的 18点(UTC)
风速10节,风向北转东北
能见度10公里或以上
少量云层高于6000英尺

TAF: SPZO 241700Z 2418/2518 02010KT 9999 FEW060 TX22/2419Z TN02/2511Z

超过4000个机场的气象观测和天气预报(METAR&TAF报告)。

可查询的气象台以黄色和红色小点在地图上表示。

将鼠标移到小点上方,可查看气象台名称。

然后点击查看天气观测和预报。

如需切换地图:点击带黑十字的绿色按钮放大地图;点击带横线的绿色按钮缩小地图;或者点击绿色箭头查看邻近地区的地图。


METAR-TAF: